Time;durP1;ratioP1;P1;durP2;ratioP2;P2;SDS_P1;SDS_P2;PMS_P1;PMS_P2;Temp;Humidity;BMP_temperature;BMP_pressure;BME280_temperature;BME280_humidity;BME280_pressure;Samples;Min_cycle;Max_cycle;Signal;HPM_P1;HPM_P2
2022/07/24 00:00:04;;;;;;;148.03;141.40;;;15.30;99.90;;;;;;5006839;28;20512;-87
2022/07/24 00:02:40;;;;;;;140.57;134.57;;;15.10;99.90;;;;;;5003958;28;20520;-88
2022/07/24 00:05:30;;;;;;;137.43;131.80;;;15.10;99.90;;;;;;4990958;28;20463;-89
2022/07/24 00:08:05;;;;;;;147.40;140.70;;;14.90;99.90;;;;;;4996716;28;20464;-89
2022/07/24 00:16:35;;;;;;;177.93;169.93;;;15.00;99.90;;;;;;4983118;28;20443;-87
2022/07/24 00:22:33;;;;;;;;;;;;;;;;;;;;;
2022/07/24 00:25:19;;;;;;;149.90;143.33;;;15.10;99.90;;;;;;4993811;28;20450;-88
2022/07/24 00:30:54;;;;;;;142.17;135.77;;;15.10;99.90;;;;;;4959642;28;20549;-87
2022/07/24 00:33:29;;;;;;;137.33;131.20;;;15.20;99.90;;;;;;5001112;28;20474;-88
2022/07/24 00:36:01;;;;;;;105.90;101.50;;;15.20;99.90;;;;;;4991361;28;20462;-88
2022/07/24 00:38:33;;;;;;;110.47;105.37;;;15.30;99.90;;;;;;4990748;28;20468;-87
2022/07/24 00:41:19;;;;;;;91.20;87.30;;;15.30;99.90;;;;;;4990626;28;20479;-89
2022/07/24 00:47:21;;;;;;;72.67;68.97;;;15.30;99.90;;;;;;5007091;28;20506;-88
2022/07/24 00:50:14;;;;;;;79.70;75.80;;;15.20;99.70;;;;;;4990391;28;20526;-87
2022/07/24 00:53:03;;;;;;;90.63;86.40;;;15.20;99.70;;;;;;4997353;28;20474;-87
2022/07/24 00:55:45;;;;;;;113.50;108.80;;;15.10;99.70;;;;;;5010750;28;20561;-87
2022/07/24 00:58:23;;;;;;;104.57;100.30;;;15.20;99.90;;;;;;4987819;28;20455;-88
2022/07/24 01:01:13;;;;;;;;;;;;;;;;;;;;;
2022/07/24 01:03:48;;;;;;;158.67;151.40;;;15.00;99.90;;;;;;4990215;28;20471;-88
2022/07/24 01:06:34;;;;;;;124.97;119.77;;;14.90;99.90;;;;;;4991023;28;20494;-87
2022/07/24 01:09:09;;;;;;;119.57;114.70;;;14.90;99.90;;;;;;4990634;28;20447;-88
2022/07/24 01:11:43;;;;;;;135.80;130.20;;;14.90;99.90;;;;;;4996097;28;20909;-88
2022/07/24 01:14:24;;;;;;;157.73;150.80;;;14.80;99.90;;;;;;5010138;28;20973;-87
2022/07/24 01:17:22;;;;;;;171.87;164.10;;;14.90;99.90;;;;;;5003304;28;20478;-87
2022/07/24 01:20:03;;;;;;;171.43;163.77;;;14.70;99.90;;;;;;5010277;28;20450;-87
2022/07/24 01:22:41;;;;;;;185.23;176.40;;;14.80;99.90;;;;;;5009440;28;20477;-86
2022/07/24 01:28:17;;;;;;;153.97;147.50;;;14.70;99.90;;;;;;4991527;28;20448;-89
2022/07/24 01:30:48;;;;;;;159.07;152.03;;;14.70;99.90;;;;;;5004176;28;20485;-88
2022/07/24 01:33:21;;;;;;;164.10;157.23;;;14.50;99.90;;;;;;5009948;28;20478;-87
2022/07/24 01:35:55;;;;;;;149.07;142.97;;;14.70;99.90;;;;;;4996842;28;20467;-87
2022/07/24 01:41:34;;;;;;;179.57;171.87;;;14.50;99.90;;;;;;5004348;28;20481;-87
2022/07/24 01:44:30;;;;;;;198.60;189.77;;;14.40;99.90;;;;;;5008170;28;20497;-88
2022/07/24 01:49:55;;;;;;;224.40;214.30;;;14.50;99.90;;;;;;4988247;28;20443;-87
2022/07/24 01:52:29;;;;;;;209.17;199.83;;;14.30;99.90;;;;;;5003636;28;20523;-88
2022/07/24 01:55:03;;;;;;;209.93;200.43;;;14.40;99.90;;;;;;5010185;28;20446;-89
2022/07/24 01:57:39;;;;;;;210.10;200.30;;;14.30;99.90;;;;;;4996941;28;20442;-88
2022/07/24 02:00:16;;;;;;;215.23;205.23;;;14.30;99.90;;;;;;5003620;28;20453;-87
2022/07/24 02:03:14;;;;;;;286.53;272.97;;;14.20;99.90;;;;;;5010115;28;20473;-89
2022/07/24 02:06:03;;;;;;;292.57;278.00;;;14.20;99.90;;;;;;4992326;28;20454;-88
2022/07/24 02:08:46;;;;;;;289.77;275.50;;;14.30;99.90;;;;;;4990525;28;20455;-87
2022/07/24 02:11:46;;;;;;;304.90;290.60;;;14.30;99.90;;;;;;4990402;28;20455;-88
2022/07/24 02:14:16;;;;;;;337.47;321.40;;;14.10;99.90;;;;;;4990215;28;20455;-87
2022/07/24 02:16:49;;;;;;;322.53;306.63;;;14.20;99.90;;;;;;4990201;28;20450;-87
2022/07/24 02:19:35;;;;;;;348.83;332.07;;;14.20;99.90;;;;;;4993465;28;20454;-88
2022/07/24 02:22:17;;;;;;;409.40;389.87;;;14.20;99.90;;;;;;5009817;28;20474;-88
2022/07/24 02:24:50;;;;;;;404.40;384.63;;;14.50;99.90;;;;;;5003278;28;20462;-89
2022/07/24 02:33:17;;;;;;;318.50;303.13;;;14.70;99.90;;;;;;5008272;28;20462;-88
2022/07/24 02:35:54;;;;;;;273.90;260.93;;;14.70;99.90;;;;;;5009510;28;20456;-88
2022/07/24 02:38:48;;;;;;;285.40;272.10;;;14.80;99.90;;;;;;5005952;28;20486;-88
2022/07/24 02:41:23;;;;;;;263.33;250.73;;;14.80;99.90;;;;;;4993367;28;20450;-87
2022/07/24 02:44:03;;;;;;;222.20;212.00;;;14.70;99.90;;;;;;5008677;28;20541;-87
2022/07/24 02:46:49;;;;;;;205.20;195.80;;;14.70;99.90;;;;;;5002450;28;20509;-87
2022/07/24 02:49:35;;;;;;;238.13;228.13;;;14.50;99.90;;;;;;4957638;28;20493;-88
2022/07/24 02:52:31;;;;;;;275.27;263.73;;;14.50;99.90;;;;;;4999017;28;20450;-88
2022/07/24 02:58:03;;;;;;;313.37;299.47;;;14.60;99.90;;;;;;4992167;28;21020;-88
2022/07/24 03:00:59;;;;;;;317.87;303.57;;;14.50;99.90;;;;;;5008405;28;20453;-87
2022/07/24 03:07:11;;;;;;;366.53;350.00;;;14.40;99.90;;;;;;4985723;28;20454;-87
2022/07/24 03:10:01;;;;;;;366.23;348.90;;;14.40;99.90;;;;;;4990789;28;20834;-87
2022/07/24 03:12:55;;;;;;;370.23;352.63;;;14.50;99.90;;;;;;5000815;28;20481;-88
2022/07/24 03:15:55;;;;;;;364.23;347.33;;;14.50;99.90;;;;;;5008914;28;20458;-87
2022/07/24 03:18:32;;;;;;;367.40;350.60;;;14.40;99.90;;;;;;4991338;28;20952;-87
2022/07/24 03:21:27;;;;;;;402.10;384.30;;;14.50;99.90;;;;;;4993636;28;20445;-88
2022/07/24 03:24:17;;;;;;;388.03;369.83;;;14.50;99.90;;;;;;5006305;28;20545;-87
2022/07/24 03:26:49;;;;;;;402.20;384.40;;;14.40;99.90;;;;;;5006131;28;20470;-87
2022/07/24 03:29:28;;;;;;;434.40;414.27;;;14.50;99.90;;;;;;5009409;28;20462;-89
2022/07/24 03:32:17;;;;;;;451.00;429.90;;;14.40;99.90;;;;;;4991856;28;20493;-86
2022/07/24 03:38:20;;;;;;;419.63;400.70;;;14.40;99.90;;;;;;4988607;28;20494;-88
2022/07/24 03:41:08;;;;;;;410.63;392.37;;;14.50;99.90;;;;;;5003920;28;20462;-87
2022/07/24 04:02:55;;;;;;;372.40;355.10;;;14.70;99.90;;;;;;4934448;28;20515;-84
2022/07/24 04:05:22;;;;;;;361.70;345.13;;;14.60;99.90;;;;;;4995158;28;20554;-85
2022/07/24 04:08:03;;;;;;;368.33;350.77;;;14.60;99.90;;;;;;4998391;28;20466;-84
2022/07/24 04:11:15;;;;;;;370.10;352.23;;;14.60;99.90;;;;;;4987340;28;20480;-84
2022/07/24 04:17:05;;;;;;;360.83;343.93;;;14.70;99.90;;;;;;4979693;28;20461;-84
2022/07/24 04:19:58;;;;;;;362.10;345.17;;;14.80;99.90;;;;;;5009210;28;20979;-83
2022/07/24 04:25:49;;;;;;;380.20;362.30;;;14.80;99.90;;;;;;5001288;28;20473;-83
2022/07/24 04:34:26;;;;;;;369.83;352.03;;;15.10;99.90;;;;;;5004636;28;20464;-82
2022/07/24 04:39:49;;;;;;;351.17;334.37;;;15.30;99.90;;;;;;5008989;28;20438;-82
2022/07/24 04:42:16;;;;;;;349.60;333.00;;;15.50;99.90;;;;;;5013610;28;20477;-83
2022/07/24 04:44:45;;;;;;;351.20;334.33;;;15.60;99.90;;;;;;5013792;28;20454;-83
2022/07/24 04:47:30;;;;;;;331.43;315.33;;;15.80;99.90;;;;;;5013913;28;20497;-83
2022/07/24 04:50:05;;;;;;;318.20;303.00;;;15.70;99.90;;;;;;4999485;28;20481;-83
2022/07/24 04:52:38;;;;;;;290.67;277.07;;;16.00;99.90;;;;;;4997773;28;20501;-84
2022/07/24 04:55:16;;;;;;;261.07;249.03;;;16.00;99.90;;;;;;5013462;28;20455;-83
2022/07/24 04:57:49;;;;;;;228.37;218.03;;;16.10;99.90;;;;;;5012350;28;20458;-84
2022/07/24 05:00:50;;;;;;;232.50;221.97;;;16.20;99.90;;;;;;5012018;28;20461;-84
2022/07/24 05:03:24;;;;;;;204.77;195.60;;;16.30;99.90;;;;;;5011890;28;20551;-83
2022/07/24 05:06:04;;;;;;;185.20;176.90;;;16.60;99.90;;;;;;5008459;28;20767;-83
2022/07/24 05:14:27;;;;;;;126.93;121.50;;;16.90;99.90;;;;;;5006857;28;20456;-82
2022/07/24 05:16:54;;;;;;;88.30;84.10;;;17.00;99.90;;;;;;4985363;28;20480;-84
2022/07/24 05:19:22;;;;;;;58.97;55.97;;;17.10;99.90;;;;;;4998119;28;20449;-84
2022/07/24 05:21:49;;;;;;;59.43;56.23;;;17.30;99.90;;;;;;4998979;28;20478;-84
2022/07/24 05:24:16;;;;;;;59.20;55.80;;;17.40;99.90;;;;;;5002553;28;20482;-84
2022/07/24 05:26:43;;;;;;;32.77;30.33;;;17.40;99.90;;;;;;5001337;28;20460;-83
2022/07/24 05:29:09;;;;;;;35.07;32.47;;;17.60;99.50;;;;;;5005610;28;20448;-84
2022/07/24 05:31:36;;;;;;;25.53;23.23;;;17.50;99.50;;;;;;5002790;28;20463;-85
2022/07/24 05:34:03;;;;;;;20.67;18.77;;;17.60;98.10;;;;;;5002375;28;20464;-84
2022/07/24 05:40:19;;;;;;;17.93;12.77;;;18.10;97.10;;;;;;4940345;29;20464;-83
2022/07/24 05:43:19;;;;;;;;;;;;;;;;;;;;;
2022/07/24 05:49:34;;;;;;;15.53;11.30;;;19.10;93.00;;;;;;4940047;29;20480;-83
2022/07/24 05:52:21;;;;;;;13.23;10.50;;;19.50;91.50;;;;;;4982338;28;20979;-83
2022/07/24 05:55:35;;;;;;;12.47;9.47;;;19.70;90.00;;;;;;5001914;28;20843;-82
2022/07/24 05:58:16;;;;;;;12.80;10.57;;;19.80;89.70;;;;;;5003653;28;20463;-83
2022/07/24 06:01:14;;;;;;;15.70;11.10;;;20.20;90.00;;;;;;5000993;28;20888;-82
2022/07/24 06:03:41;;;;;;;11.73;10.10;;;20.50;86.50;;;;;;4998192;28;20479;-82
2022/07/24 06:06:11;;;;;;;13.10;10.37;;;21.00;82.90;;;;;;4999436;28;20500;-82
2022/07/24 06:08:42;;;;;;;12.30;9.43;;;21.10;79.20;;;;;;4999549;28;21021;-83
2022/07/24 06:11:11;;;;;;;13.27;9.83;;;21.40;77.60;;;;;;5001981;28;20544;-83
2022/07/24 06:13:48;;;;;;;11.50;9.10;;;21.70;77.80;;;;;;4999191;28;20487;-82
2022/07/24 06:19:46;;;;;;;12.90;10.50;;;22.50;69.60;;;;;;4962027;29;20435;-83
2022/07/24 06:22:44;;;;;;;11.30;8.80;;;22.70;68.10;;;;;;4960631;29;20474;-82
2022/07/24 06:25:28;;;;;;;13.90;8.33;;;23.20;67.80;;;;;;4986687;28;20448;-83
2022/07/24 06:28:19;;;;;;;11.80;9.43;;;23.40;64.90;;;;;;4996360;28;20471;-84
2022/07/24 06:34:37;;;;;;;12.73;8.40;;;23.70;60.20;;;;;;4963282;28;20484;-83
2022/07/24 06:40:46;;;;;;;;;;;;;;;;;;;;;
2022/07/24 06:43:31;;;;;;;11.37;7.63;;;24.60;54.00;;;;;;4997862;28;20489;-83
2022/07/24 06:46:12;;;;;;;12.33;8.27;;;24.50;50.90;;;;;;4999906;28;20958;-83
2022/07/24 06:48:50;;;;;;;10.70;7.63;;;24.60;51.70;;;;;;4997736;28;20488;-83
2022/07/24 06:51:33;;;;;;;11.17;7.33;;;24.80;50.30;;;;;;4999494;28;20458;-82
2022/07/24 06:54:06;;;;;;;11.03;7.33;;;24.90;49.00;;;;;;4996870;28;20536;-83
2022/07/24 06:57:02;;;;;;;11.93;7.13;;;25.00;48.90;;;;;;4999564;28;20963;-82
2022/07/24 06:59:29;;;;;;;10.40;7.17;;;25.40;49.30;;;;;;4982374;28;20541;-84
2022/07/24 07:01:56;;;;;;;12.40;7.80;;;25.40;49.30;;;;;;4993907;28;20469;-83
2022/07/24 07:04:22;;;;;;;9.70;6.67;;;25.60;46.50;;;;;;4999114;28;20449;-83
2022/07/24 07:06:49;;;;;;;10.23;6.60;;;25.80;44.90;;;;;;5000276;28;20458;-83
2022/07/24 07:09:16;;;;;;;11.10;7.90;;;25.60;40.60;;;;;;4997158;28;20474;-83
2022/07/24 07:11:43;;;;;;;14.03;7.43;;;25.60;40.40;;;;;;4998277;28;20452;-82
2022/07/24 07:14:11;;;;;;;11.40;7.13;;;25.70;39.60;;;;;;4998514;28;20444;-84
2022/07/24 07:16:38;;;;;;;8.20;5.90;;;25.90;37.70;;;;;;4998890;28;20454;-83
2022/07/24 07:19:04;;;;;;;17.17;8.23;;;25.70;35.80;;;;;;4994927;28;20461;-82
2022/07/24 07:21:31;;;;;;;11.63;6.57;;;25.40;34.90;;;;;;5001109;28;20454;-83
2022/07/24 07:23:58;;;;;;;11.47;7.60;;;25.20;36.70;;;;;;4998810;28;20450;-83
2022/07/24 07:26:25;;;;;;;11.23;6.70;;;25.30;38.80;;;;;;5000299;28;20454;-83
2022/07/24 07:28:52;;;;;;;11.10;7.10;;;25.30;40.10;;;;;;4998770;28;20473;-83
2022/07/24 07:31:21;;;;;;;11.53;6.87;;;25.50;37.20;;;;;;4981992;28;20457;-82
2022/07/24 07:33:48;;;;;;;10.87;7.53;;;25.50;38.80;;;;;;4984675;28;20474;-83
2022/07/24 07:36:15;;;;;;;8.57;6.23;;;25.50;34.70;;;;;;5000743;28;20545;-82
2022/07/24 07:38:41;;;;;;;9.53;7.00;;;25.60;34.20;;;;;;4999878;28;20453;-84
2022/07/24 07:41:08;;;;;;;9.47;6.63;;;25.80;31.90;;;;;;5000646;28;20460;-83
2022/07/24 07:43:35;;;;;;;13.30;7.47;;;26.00;31.30;;;;;;5001859;28;20469;-83
2022/07/24 07:46:02;;;;;;;16.33;8.20;;;26.00;31.40;;;;;;5001068;28;20461;-83
2022/07/24 07:48:30;;;;;;;10.50;6.97;;;25.90;31.30;;;;;;4999600;28;20986;-83
2022/07/24 07:50:57;;;;;;;9.60;7.20;;;26.00;31.30;;;;;;5000302;28;20967;-83
2022/07/24 07:53:24;;;;;;;13.03;6.93;;;25.80;31.10;;;;;;4999409;28;20472;-82
2022/07/24 07:55:52;;;;;;;10.57;7.63;;;25.70;31.20;;;;;;4999713;28;20462;-82
2022/07/24 07:58:19;;;;;;;10.13;7.63;;;25.40;31.10;;;;;;5000421;28;20460;-83
2022/07/24 08:00:46;;;;;;;15.10;9.43;;;25.60;32.00;;;;;;4999845;28;20500;-84
2022/07/24 08:03:13;;;;;;;13.43;8.43;;;25.50;32.00;;;;;;4999972;28;20553;-82
2022/07/24 08:05:41;;;;;;;13.23;7.60;;;25.50;33.80;;;;;;4999040;28;20457;-83
2022/07/24 08:08:08;;;;;;;11.27;6.87;;;25.70;31.20;;;;;;4999989;28;20478;-83
2022/07/24 08:10:35;;;;;;;11.83;8.50;;;26.20;32.90;;;;;;4999911;28;20519;-83
2022/07/24 08:13:02;;;;;;;12.60;8.03;;;26.20;30.10;;;;;;4998874;28;20482;-83
2022/07/24 08:15:29;;;;;;;9.57;7.20;;;26.40;31.70;;;;;;4999371;28;20456;-83
2022/07/24 08:17:57;;;;;;;10.00;7.07;;;26.50;28.60;;;;;;5000758;28;20457;-83
2022/07/24 08:20:25;;;;;;;13.93;8.97;;;26.50;27.70;;;;;;5000926;28;20457;-83
2022/07/24 08:22:54;;;;;;;11.43;8.83;;;26.70;30.20;;;;;;5000680;28;20518;-83
2022/07/24 08:25:21;;;;;;;9.90;6.83;;;27.30;27.40;;;;;;5003412;28;20547;-83
2022/07/24 08:27:48;;;;;;;12.00;7.17;;;27.30;24.50;;;;;;5004775;28;20470;-83
2022/07/24 08:30:15;;;;;;;9.60;6.97;;;27.40;24.60;;;;;;5004749;28;20457;-82
2022/07/24 08:32:43;;;;;;;11.77;6.60;;;27.90;22.70;;;;;;5004582;28;20561;-83
2022/07/24 08:35:11;;;;;;;9.20;6.60;;;27.90;24.90;;;;;;5004428;28;20529;-83
2022/07/24 08:37:38;;;;;;;8.90;6.30;;;27.80;20.60;;;;;;5005588;28;20431;-84
2022/07/24 08:40:09;;;;;;;14.93;7.13;;;28.00;22.50;;;;;;5004636;28;20457;-83
2022/07/24 08:42:36;;;;;;;8.97;6.43;;;28.40;22.00;;;;;;4999829;28;20991;-85
2022/07/24 08:45:04;;;;;;;10.40;7.50;;;28.80;17.90;;;;;;4997457;28;20464;-85
2022/07/24 08:47:32;;;;;;;10.07;6.30;;;28.70;22.20;;;;;;5003181;28;20563;-85
2022/07/24 08:49:59;;;;;;;9.70;6.70;;;29.10;19.30;;;;;;5004836;28;20461;-84
2022/07/24 08:52:27;;;;;;;14.63;6.43;;;29.20;18.10;;;;;;5003913;28;20483;-84
2022/07/24 08:54:54;;;;;;;10.87;7.17;;;29.60;15.50;;;;;;5005268;28;20454;-84
2022/07/24 08:57:22;;;;;;;11.13;6.63;;;29.80;17.00;;;;;;5006150;28;20450;-85
2022/07/24 08:59:49;;;;;;;8.53;6.10;;;29.70;14.20;;;;;;5005037;28;20436;-84
2022/07/24 09:02:16;;;;;;;8.90;6.87;;;29.80;15.70;;;;;;5001050;28;20470;-84
2022/07/24 09:05:44;;;;;;;;;;;;;;;;;;;;;
2022/07/24 09:11:52;;;;;;;;;;;;;;;;;;;;;
2022/07/24 09:14:59;;;;;;;11.57;5.90;;;30.40;9.20;;;;;;5000266;28;20466;-86
2022/07/24 09:17:33;;;;;;;11.07;7.07;;;31.00;7.30;;;;;;5005975;28;20857;-85
2022/07/24 09:20:13;;;;;;;8.90;6.90;;;31.10;5.40;;;;;;5006010;28;20461;-86
2022/07/24 09:22:47;;;;;;;13.30;6.87;;;30.60;4.60;;;;;;5005996;28;20462;-86
2022/07/24 09:25:39;;;;;;;11.07;6.63;;;31.60;4.00;;;;;;5005596;28;20454;-85
2022/07/24 09:28:16;;;;;;;8.40;5.83;;;31.80;4.00;;;;;;5005898;28;20481;-87
2022/07/24 09:30:45;;;;;;;8.37;6.50;;;32.00;3.30;;;;;;5005514;28;20492;-87
2022/07/24 09:36:33;;;;;;;9.97;6.57;;;31.30;2.50;;;;;;5000571;28;20496;-85
2022/07/24 09:42:46;;;;;;;10.50;6.10;;;31.80;1.50;;;;;;4984151;28;20561;-87
2022/07/24 09:51:32;;;;;;;;;;;;;;;;;;;;;
2022/07/24 09:54:25;;;;;;;9.27;6.40;;;33.00;1.00;;;;;;4996135;28;20461;-87
2022/07/24 10:10:18;;;;;;;8.70;5.77;;;33.10;1.00;;;;;;4935167;28;20463;-85
2022/07/24 10:13:27;;;;;;;7.80;5.30;;;32.60;1.00;;;;;;5106273;23;20473;-85
2022/07/24 10:16:36;;;;;;;8.30;5.70;;;33.40;1.00;;;;;;4928963;29;20509;-85
2022/07/24 10:19:57;;;;;;;;;;;;;;;;;;;;;
2022/07/24 10:22:43;;;;;;;11.50;5.17;;;34.00;1.00;;;;;;5029117;28;20466;-85
2022/07/24 10:25:24;;;;;;;8.73;6.23;;;34.10;1.00;;;;;;5029554;28;20961;-85
2022/07/24 10:28:06;;;;;;;7.57;5.63;;;33.70;1.00;;;;;;5029390;28;20453;-85
2022/07/24 10:30:39;;;;;;;8.73;5.87;;;33.30;1.00;;;;;;5029048;28;20436;-85
2022/07/24 10:36:59;;;;;;;8.50;5.60;;;34.20;1.00;;;;;;5030191;28;20446;-85
2022/07/24 10:43:41;;;;;;;10.13;7.23;;;34.90;1.00;;;;;;5026797;28;20952;-85
2022/07/24 10:46:15;;;;;;;9.87;5.83;;;34.70;1.00;;;;;;5028282;28;20817;-86
2022/07/24 10:48:59;;;;;;;;;;;;;;;;;;;;;
2022/07/24 10:55:11;;;;;;;10.10;7.20;;;34.90;1.00;;;;;;5024110;28;20465;-87
2022/07/24 10:58:12;;;;;;;12.23;5.73;;;34.10;1.00;;;;;;5026019;28;20449;-87
2022/07/24 11:00:50;;;;;;;8.43;5.00;;;34.40;1.00;;;;;;5016863;28;20428;-85
2022/07/24 11:03:25;;;;;;;9.03;6.03;;;35.20;1.00;;;;;;5021016;28;20454;-88
2022/07/24 11:06:07;;;;;;;7.20;5.27;;;35.10;1.00;;;;;;5020443;28;20427;-86
2022/07/24 11:09:00;;;;;;;8.50;5.33;;;35.20;1.00;;;;;;5023602;28;20509;-87
2022/07/24 11:12:07;;;;;;;8.00;4.93;;;36.30;1.00;;;;;;5021045;28;20483;-89
2022/07/24 11:18:21;;;;;;;8.90;5.60;;;35.80;1.00;;;;;;5002482;28;20553;-88
2022/07/24 11:21:29;;;;;;;6.90;4.60;;;35.40;1.00;;;;;;5008554;28;20473;-86
2022/07/24 11:24:25;;;;;;;8.40;5.90;;;36.40;1.00;;;;;;5025126;28;20511;-87
2022/07/24 11:27:16;;;;;;;7.53;5.00;;;36.60;1.00;;;;;;5022150;28;20456;-86
2022/07/24 11:29:52;;;;;;;8.73;5.10;;;36.90;1.00;;;;;;5024082;28;20462;-86
2022/07/24 11:32:37;;;;;;;7.30;5.47;;;36.60;1.00;;;;;;5022786;28;20505;-88
2022/07/24 11:38:40;;;;;;;8.13;5.90;;;36.30;1.00;;;;;;5000895;28;20461;-87
2022/07/24 11:41:32;;;;;;;9.33;5.07;;;35.50;1.00;;;;;;5013134;28;20458;-87
2022/07/24 11:44:11;;;;;;;8.83;5.00;;;35.70;1.00;;;;;;4985254;28;20487;-90
2022/07/24 11:49:59;;;;;;;8.40;5.03;;;35.30;1.00;;;;;;5020103;28;20439;-87
2022/07/24 11:52:39;;;;;;;6.93;4.80;;;35.70;1.00;;;;;;5024230;28;20992;-87
2022/07/24 11:55:24;;;;;;;8.80;4.97;;;36.40;1.00;;;;;;5024185;28;20515;-87
2022/07/24 11:57:57;;;;;;;7.87;5.20;;;37.10;1.00;;;;;;5023797;28;20459;-87
2022/07/24 12:00:33;;;;;;;9.13;5.87;;;37.60;1.00;;;;;;5025365;28;20454;-87
2022/07/24 12:03:21;;;;;;;8.23;4.70;;;37.80;1.00;;;;;;5027352;28;20451;-87
2022/07/24 12:05:57;;;;;;;7.10;4.77;;;38.10;1.00;;;;;;5028718;28;20424;-86
2022/07/24 12:09:10;;;;;;;8.63;5.30;;;37.50;1.00;;;;;;5029052;28;20452;-88
2022/07/24 12:12:03;;;;;;;8.57;5.07;;;37.70;1.00;;;;;;5030185;28;20450;-87
2022/07/24 12:14:45;;;;;;;8.70;4.60;;;38.10;1.00;;;;;;5026127;28;20465;-86
2022/07/24 12:17:18;;;;;;;9.80;5.43;;;38.50;1.00;;;;;;5025835;28;20544;-86
2022/07/24 12:19:58;;;;;;;8.83;5.90;;;38.90;1.00;;;;;;5028689;28;20468;-87
2022/07/24 12:22:35;;;;;;;10.30;5.63;;;38.80;1.00;;;;;;5029448;28;20468;-86
2022/07/24 12:25:10;;;;;;;7.60;5.33;;;39.30;1.00;;;;;;5029829;28;20453;-88
2022/07/24 12:27:55;;;;;;;8.20;4.80;;;38.70;1.00;;;;;;5029711;28;20448;-88
2022/07/24 12:30:40;;;;;;;8.90;5.33;;;38.70;1.00;;;;;;5028963;28;20915;-87
2022/07/24 12:33:11;;;;;;;10.80;4.60;;;39.00;1.00;;;;;;5031486;28;20475;-87
2022/07/24 12:36:11;;;;;;;14.43;5.57;;;39.80;1.00;;;;;;5029425;28;20479;-87
2022/07/24 12:38:42;;;;;;;10.30;5.00;;;39.70;1.00;;;;;;5026815;28;20427;-86
2022/07/24 12:41:22;;;;;;;8.87;5.60;;;40.20;1.00;;;;;;5027346;28;20442;-85
2022/07/24 12:44:02;;;;;;;8.83;4.97;;;39.70;1.00;;;;;;5007944;28;20500;-87
2022/07/24 12:46:48;;;;;;;8.90;5.70;;;39.20;1.00;;;;;;5016802;28;20458;-84
2022/07/24 12:49:32;;;;;;;9.03;6.00;;;39.90;1.00;;;;;;5005196;28;20972;-85
2022/07/24 12:52:41;;;;;;;;;;;;;;;;;;;;;
2022/07/24 12:55:42;;;;;;;14.20;5.87;;;40.60;1.00;;;;;;5009187;28;20452;-86
2022/07/24 12:58:17;;;;;;;7.30;5.40;;;40.60;1.00;;;;;;5018788;28;20458;-85
2022/07/24 13:01:15;;;;;;;7.90;5.70;;;38.90;1.00;;;;;;5022172;28;20471;-86
2022/07/24 13:04:13;;;;;;;8.10;4.90;;;39.40;1.00;;;;;;5125780;23;20497;-86
2022/07/24 13:06:57;;;;;;;7.73;4.83;;;39.40;1.00;;;;;;5026757;28;20422;-87
2022/07/24 13:09:47;;;;;;;7.13;5.80;;;39.50;1.00;;;;;;5031238;28;20531;-85
2022/07/24 13:18:37;;;;;;;8.90;5.80;;;40.40;1.00;;;;;;5019958;28;20443;-87
2022/07/24 13:21:19;;;;;;;7.87;5.73;;;39.70;1.00;;;;;;5046091;28;20932;-86
2022/07/24 13:24:33;;;;;;;;;;;;;;;;;;;;;
2022/07/24 13:30:13;;;;;;;9.80;6.43;;;39.30;1.00;;;;;;5028094;28;20418;-86
2022/07/24 13:32:50;;;;;;;7.13;5.57;;;40.10;1.00;;;;;;5040882;28;20445;-86
2022/07/24 13:35:33;;;;;;;6.90;5.27;;;40.40;1.00;;;;;;5040035;28;20437;-85
2022/07/24 13:38:19;;;;;;;6.90;5.00;;;39.70;1.00;;;;;;5039117;28;20934;-85
2022/07/24 13:40:57;;;;;;;6.83;4.80;;;39.10;1.00;;;;;;5039432;28;21002;-85
2022/07/24 13:43:53;;;;;;;7.17;4.80;;;38.80;1.00;;;;;;5041530;28;20446;-88
2022/07/24 13:46:57;;;;;;;;;;;;;;;;;;;;;
2022/07/24 13:49:41;;;;;;;7.47;5.87;;;38.30;1.00;;;;;;5026369;28;20971;-86
2022/07/24 13:52:38;;;;;;;9.03;5.83;;;38.70;1.00;;;;;;5039899;28;20456;-86
2022/07/24 13:55:36;;;;;;;;;;;;;;;;;;;;;
2022/07/24 13:58:14;;;;;;;6.17;4.93;;;39.30;1.00;;;;;;5035945;28;20460;-86
2022/07/24 14:01:03;;;;;;;8.23;5.53;;;39.60;1.00;;;;;;5045190;28;20459;-86
2022/07/24 14:03:45;;;;;;;12.20;6.40;;;38.60;1.00;;;;;;5046921;28;20827;-87
2022/07/24 14:06:16;;;;;;;9.50;5.17;;;38.90;1.00;;;;;;5025907;28;20471;-86
2022/07/24 14:11:59;;;;;;;8.03;5.63;;;40.00;1.00;;;;;;5029507;28;20831;-87
2022/07/24 14:14:42;;;;;;;9.00;5.23;;;39.10;1.00;;;;;;5026505;28;20479;-87
2022/07/24 14:17:29;;;;;;;6.93;4.50;;;39.10;1.00;;;;;;5038734;28;20944;-87
2022/07/24 14:20:38;;;;;;;14.20;5.50;;;39.70;1.00;;;;;;5043272;28;20442;-86
2022/07/24 14:26:40;;;;;;;7.83;4.83;;;41.20;1.00;;;;;;5007098;28;20461;-86
2022/07/24 14:29:50;;;;;;;15.00;4.87;;;40.90;1.00;;;;;;5028963;28;20455;-87
2022/07/24 14:32:25;;;;;;;8.03;5.50;;;40.50;1.00;;;;;;5025123;28;20922;-86
2022/07/24 14:35:09;;;;;;;7.43;5.00;;;40.80;1.00;;;;;;5044075;28;20433;-86
2022/07/24 14:37:47;;;;;;;10.00;5.27;;;40.50;1.00;;;;;;5044063;28;20441;-86
2022/07/24 14:40:14;;;;;;;6.03;4.43;;;39.40;1.00;;;;;;5040413;28;20874;-86
2022/07/24 14:42:42;;;;;;;9.47;5.43;;;39.60;1.00;;;;;;5035829;28;20477;-85
2022/07/24 14:45:10;;;;;;;9.13;5.20;;;39.40;1.00;;;;;;5040446;28;20479;-85
2022/07/24 14:47:38;;;;;;;7.20;4.73;;;39.20;1.00;;;;;;5036382;28;20426;-85
2022/07/24 14:50:06;;;;;;;7.80;4.80;;;40.10;1.00;;;;;;5035535;28;20852;-86
2022/07/24 14:52:33;;;;;;;9.00;5.50;;;39.30;1.00;;;;;;5034953;28;20830;-85
2022/07/24 14:55:02;;;;;;;6.53;4.90;;;40.20;1.00;;;;;;5038295;28;20418;-87
2022/07/24 14:57:36;;;;;;;8.20;5.20;;;40.40;1.00;;;;;;5040181;28;20447;-86
2022/07/24 15:00:06;;;;;;;6.90;4.60;;;39.90;1.00;;;;;;5027424;28;20467;-86
2022/07/24 15:02:33;;;;;;;7.37;4.60;;;39.40;1.00;;;;;;5040323;28;20486;-86
2022/07/24 15:05:02;;;;;;;6.90;4.80;;;39.90;1.00;;;;;;5040983;28;20437;-86
2022/07/24 15:07:33;;;;;;;10.77;5.33;;;40.40;1.00;;;;;;5040401;28;20458;-86
2022/07/24 15:10:06;;;;;;;9.73;5.87;;;40.70;1.00;;;;;;5041248;28;20448;-86
2022/07/24 15:13:02;;;;;;;;;;;;;;;;;;;;;
2022/07/24 15:15:32;;;;;;;7.20;4.27;;;40.50;1.00;;;;;;5039378;28;20558;-86
2022/07/24 15:18:03;;;;;;;7.10;5.07;;;40.50;1.00;;;;;;5041533;28;20458;-86
2022/07/24 15:20:32;;;;;;;8.93;4.73;;;40.30;1.00;;;;;;5040494;28;20442;-87
2022/07/24 15:23:02;;;;;;;7.40;4.33;;;40.90;1.00;;;;;;5041187;28;20450;-85
2022/07/24 15:25:32;;;;;;;9.10;4.13;;;40.70;1.00;;;;;;5038178;28;20456;-86
2022/07/24 15:28:01;;;;;;;6.30;4.40;;;41.50;1.00;;;;;;5037474;28;20799;-86
2022/07/24 15:30:32;;;;;;;7.50;5.43;;;41.60;1.00;;;;;;5039236;28;20430;-87
2022/07/24 15:33:23;;;;;;;;;;;;;;;;;;;;;
2022/07/24 15:35:53;;;;;;;6.63;4.33;;;40.30;1.00;;;;;;5043805;28;20517;-86
2022/07/24 15:38:26;;;;;;;6.30;4.33;;;39.50;1.00;;;;;;5044210;28;20454;-85
2022/07/24 15:40:53;;;;;;;6.63;4.27;;;39.60;1.00;;;;;;5050245;28;20474;-87
2022/07/24 15:43:22;;;;;;;7.53;5.07;;;39.40;1.00;;;;;;5046624;28;20866;-86
2022/07/24 15:45:50;;;;;;;6.80;4.00;;;39.30;1.00;;;;;;5051182;28;20495;-87
2022/07/24 15:48:27;;;;;;;;;;;;;;;;;;;;;
2022/07/24 15:50:54;;;;;;;6.67;4.30;;;38.90;1.00;;;;;;5048894;28;20935;-86
2022/07/24 15:53:21;;;;;;;8.40;4.17;;;38.50;1.00;;;;;;5048668;28;20472;-86
2022/07/24 15:55:50;;;;;;;6.97;4.30;;;39.30;1.00;;;;;;5045367;28;20482;-85
2022/07/24 15:58:21;;;;;;;7.37;5.17;;;39.20;1.00;;;;;;5047958;28;20446;-86
2022/07/24 16:00:48;;;;;;;8.27;5.07;;;40.00;1.00;;;;;;5048251;28;20481;-86
2022/07/24 16:03:32;;;;;;;8.00;4.73;;;40.30;1.00;;;;;;5046512;28;20562;-86
2022/07/24 16:06:21;;;;;;;8.60;4.80;;;40.30;1.00;;;;;;5044198;28;20956;-86
2022/07/24 16:08:57;;;;;;;6.70;4.20;;;40.90;1.00;;;;;;5039363;28;20443;-86
2022/07/24 16:11:24;;;;;;;5.83;4.10;;;41.30;1.00;;;;;;5040853;28;20510;-86
2022/07/24 16:13:53;;;;;;;7.23;4.80;;;40.70;1.00;;;;;;5042677;28;20968;-85
2022/07/24 16:16:20;;;;;;;7.20;4.80;;;40.00;1.00;;;;;;5044610;28;20447;-85
2022/07/24 16:18:54;;;;;;;7.00;4.10;;;39.90;1.00;;;;;;5045350;28;21016;-86
2022/07/24 16:21:20;;;;;;;9.37;4.87;;;40.30;1.00;;;;;;5044204;28;20457;-86
2022/07/24 16:23:50;;;;;;;6.80;4.37;;;41.00;1.00;;;;;;5045010;28;20449;-87
2022/07/24 16:26:17;;;;;;;8.90;4.87;;;40.80;1.00;;;;;;5046030;28;20456;-86
2022/07/24 16:28:44;;;;;;;6.07;4.47;;;40.60;1.00;;;;;;5042693;28;20459;-86
2022/07/24 16:31:44;;;;;;;8.07;5.37;;;40.50;1.00;;;;;;5041204;28;20474;-86
2022/07/24 16:34:15;;;;;;;9.33;5.03;;;39.80;1.00;;;;;;5040881;28;20487;-86
2022/07/24 16:36:42;;;;;;;8.70;4.50;;;40.20;1.00;;;;;;5040591;28;20453;-86
2022/07/24 16:39:09;;;;;;;8.03;4.53;;;40.40;1.00;;;;;;5038274;28;20450;-86